createdAt,value
2022-11-30T00:01:09.689Z,8.70
2022-11-30T00:12:55.495Z,8.70
2022-11-30T00:18:40.092Z,8.70
2022-11-30T00:21:42.917Z,8.70
2022-11-30T00:24:22.204Z,8.90
2022-11-30T00:29:55.800Z,8.70
2022-11-30T00:32:38.645Z,9.00
2022-11-30T00:38:29.438Z,8.80
2022-11-30T00:44:09.461Z,9.30
2022-11-30T00:46:54.412Z,9.10
2022-11-30T00:55:18.720Z,8.60
2022-11-30T00:57:48.181Z,8.90
2022-11-30T01:00:33.350Z,8.70
2022-11-30T01:03:16.560Z,8.30
2022-11-30T01:06:08.409Z,8.60
2022-11-30T01:22:34.680Z,8.60
2022-11-30T01:46:37.591Z,8.50
2022-11-30T01:49:24.614Z,8.80
2022-11-30T01:51:59.588Z,8.30
2022-11-30T02:14:09.782Z,8.10
2022-11-30T02:17:22.420Z,8.90
2022-11-30T02:20:33.323Z,7.90
2022-11-30T02:23:48.710Z,8.00
2022-11-30T02:45:26.429Z,7.70
2022-11-30T02:54:24.283Z,8.50
2022-11-30T02:57:03.088Z,7.70
2022-11-30T02:59:33.273Z,7.60
2022-11-30T03:02:06.168Z,7.70
2022-11-30T03:04:43.858Z,7.70
2022-11-30T03:07:27.577Z,7.70
2022-11-30T03:10:01.182Z,7.80
2022-11-30T03:12:45.661Z,7.50
2022-11-30T03:18:12.461Z,7.80
2022-11-30T03:20:59.258Z,7.70
2022-11-30T03:23:31.378Z,8.20
2022-11-30T03:26:11.527Z,7.70
2022-11-30T03:28:44.873Z,7.70
2022-11-30T03:34:17.940Z,8.10
2022-11-30T03:36:47.327Z,7.70
2022-11-30T03:39:39.974Z,8.00
2022-11-30T03:42:17.922Z,7.60
2022-11-30T03:45:09.865Z,7.60
2022-11-30T03:50:37.426Z,7.20
2022-11-30T03:53:06.488Z,6.90
2022-11-30T04:01:50.961Z,7.30
2022-11-30T04:07:31.111Z,6.70
2022-11-30T04:10:08.261Z,7.40
2022-11-30T04:12:38.617Z,7.00
2022-11-30T04:15:09.001Z,7.40
2022-11-30T04:17:46.275Z,8.30
2022-11-30T04:20:20.190Z,7.40
2022-11-30T04:22:50.872Z,7.80
2022-11-30T04:25:21.126Z,7.50
2022-11-30T04:27:51.205Z,7.50
2022-11-30T04:30:24.004Z,7.40
2022-11-30T04:32:56.334Z,7.50
2022-11-30T04:35:27.527Z,7.50
2022-11-30T04:38:11.114Z,7.60
2022-11-30T04:40:44.450Z,7.50
2022-11-30T04:43:16.390Z,7.70
2022-11-30T04:45:49.645Z,7.60
2022-11-30T04:48:28.768Z,7.60
2022-11-30T04:51:07.172Z,6.60
2022-11-30T04:53:40.921Z,7.50
2022-11-30T04:56:28.654Z,7.50
2022-11-30T04:58:59.561Z,7.50
2022-11-30T05:04:25.417Z,8.30
2022-11-30T05:06:57.276Z,7.60
2022-11-30T05:09:27.362Z,8.40
2022-11-30T05:11:56.837Z,7.80
2022-11-30T05:17:23.609Z,7.80
2022-11-30T05:20:00.526Z,7.70
2022-11-30T05:22:30.337Z,8.10
2022-11-30T05:25:04.006Z,8.00
2022-11-30T05:27:33.519Z,7.80
2022-11-30T05:30:17.899Z,8.70
2022-11-30T05:35:58.233Z,8.50
2022-11-30T05:38:42.324Z,7.60
2022-11-30T05:44:21.848Z,7.60
2022-11-30T05:47:06.294Z,8.60
2022-11-30T05:49:57.428Z,7.70
2022-11-30T05:55:56.768Z,7.60
2022-11-30T05:58:40.391Z,7.60
2022-11-30T06:01:19.117Z,7.70
2022-11-30T06:03:57.528Z,7.10
2022-11-30T06:06:40.281Z,7.50
2022-11-30T06:09:26.294Z,7.00
2022-11-30T06:11:55.215Z,7.60
2022-11-30T06:20:52.164Z,7.70
2022-11-30T06:23:29.819Z,7.90
2022-11-30T06:26:06.270Z,7.50
2022-11-30T06:28:38.601Z,7.00
2022-11-30T06:33:43.816Z,7.60
2022-11-30T06:36:18.198Z,7.50
2022-11-30T06:41:36.164Z,8.40
2022-11-30T06:47:15.000Z,7.60
2022-11-30T06:52:53.469Z,7.50
2022-11-30T06:55:36.850Z,7.60
2022-11-30T07:01:24.017Z,7.10
2022-11-30T07:04:02.427Z,6.50
2022-11-30T07:06:55.941Z,7.40
2022-11-30T07:09:41.782Z,7.40
2022-11-30T07:12:39.864Z,7.50
2022-11-30T07:15:26.467Z,7.50
2022-11-30T07:21:04.104Z,7.60
2022-11-30T07:23:56.762Z,7.50
2022-11-30T07:26:41.612Z,7.50
2022-11-30T07:29:29.691Z,7.50
2022-11-30T07:38:06.773Z,7.60
2022-11-30T07:40:58.044Z,7.50
2022-11-30T07:43:49.371Z,7.50
2022-11-30T07:46:29.391Z,7.60
2022-11-30T07:52:40.769Z,7.60
2022-11-30T07:55:24.426Z,8.00
2022-11-30T07:58:02.948Z,7.60
2022-11-30T08:00:46.857Z,7.80
2022-11-30T08:06:34.781Z,6.90
2022-11-30T08:09:22.264Z,7.20
2022-11-30T08:12:33.696Z,7.60
2022-11-30T08:18:15.429Z,7.50
2022-11-30T08:20:58.919Z,7.60
2022-11-30T08:23:31.823Z,7.40
2022-11-30T08:26:21.028Z,8.10
2022-11-30T08:53:41.208Z,8.30
2022-11-30T09:18:27.552Z,7.60
2022-11-30T09:39:12.986Z,8.10
2022-11-30T09:42:22.640Z,7.80
2022-11-30T09:45:03.321Z,8.60
2022-11-30T09:48:14.182Z,7.90
2022-11-30T09:51:07.880Z,7.80
2022-11-30T09:53:44.720Z,7.80
2022-11-30T09:56:36.143Z,7.70
2022-11-30T10:02:26.929Z,7.30
2022-11-30T10:04:58.610Z,7.60
2022-11-30T10:07:48.814Z,7.00
2022-11-30T10:10:33.321Z,7.60
2022-11-30T10:13:29.128Z,7.60
2022-11-30T10:16:42.123Z,8.20
2022-11-30T10:19:33.838Z,7.60
2022-11-30T10:22:22.695Z,7.90
2022-11-30T10:25:13.387Z,8.20
2022-11-30T10:27:52.791Z,8.00
2022-11-30T10:30:39.595Z,8.00
2022-11-30T10:33:23.732Z,8.90
2022-11-30T10:36:03.337Z,8.00
2022-11-30T10:38:40.061Z,8.20
2022-11-30T10:41:18.189Z,8.10
2022-11-30T10:44:09.679Z,7.90
2022-11-30T10:46:47.813Z,8.60
2022-11-30T10:49:21.509Z,8.10
2022-11-30T10:51:56.678Z,7.80
2022-11-30T10:54:26.148Z,7.90
2022-11-30T10:56:55.642Z,7.90
2022-11-30T10:59:31.386Z,7.80
2022-11-30T11:02:02.579Z,7.70
2022-11-30T11:07:25.146Z,8.10
2022-11-30T11:10:05.037Z,8.30
2022-11-30T11:12:52.644Z,8.10
2022-11-30T11:15:30.975Z,7.70
2022-11-30T11:24:20.348Z,8.40
2022-11-30T11:26:55.111Z,8.30
2022-11-30T11:29:41.183Z,8.70
2022-11-30T11:32:27.685Z,8.10
2022-11-30T11:35:10.436Z,9.30
2022-11-30T11:41:17.720Z,7.90
2022-11-30T11:54:34.458Z,9.70
2022-11-30T11:57:43.189Z,8.20
2022-11-30T12:01:31.576Z,7.70
2022-11-30T12:04:26.566Z,8.70
2022-11-30T12:07:18.346Z,8.50
2022-11-30T12:10:21.839Z,7.60
2022-11-30T12:13:07.016Z,8.40
2022-11-30T12:15:50.457Z,7.60
2022-11-30T12:18:31.034Z,8.30
2022-11-30T12:21:33.587Z,8.10
2022-11-30T12:31:18.815Z,7.40
2022-11-30T12:34:11.243Z,8.30
2022-11-30T12:44:23.499Z,8.20
2022-11-30T12:47:19.654Z,8.90
2022-11-30T12:50:30.150Z,8.40
2022-11-30T12:56:48.018Z,8.10
2022-11-30T12:59:30.466Z,7.20
2022-11-30T13:02:42.024Z,7.30
2022-11-30T13:12:21.881Z,8.20
2022-11-30T13:15:02.442Z,8.80
2022-11-30T13:18:04.650Z,7.70
2022-11-30T13:23:46.505Z,8.40
2022-11-30T13:30:36.409Z,8.90
2022-11-30T13:33:57.538Z,8.30
2022-11-30T13:37:11.828Z,9.00
2022-11-30T13:40:14.654Z,8.50
2022-11-30T13:43:06.686Z,8.50
2022-11-30T13:46:08.119Z,8.30
2022-11-30T13:48:45.771Z,8.70
2022-11-30T14:06:07.618Z,8.70
2022-11-30T14:09:00.685Z,8.40
2022-11-30T14:11:47.892Z,7.90
2022-11-30T14:14:55.555Z,7.70
2022-11-30T14:17:48.527Z,8.00
2022-11-30T14:24:01.743Z,7.60
2022-11-30T14:33:03.682Z,7.90
2022-11-30T14:35:48.960Z,8.10
2022-11-30T14:38:42.120Z,8.10
2022-11-30T14:41:33.564Z,8.60
2022-11-30T14:44:25.743Z,8.70
2022-11-30T14:47:16.442Z,7.90
2022-11-30T15:24:28.513Z,9.20
2022-11-30T15:27:23.585Z,7.80
2022-11-30T15:30:06.945Z,7.90
2022-11-30T15:32:51.618Z,8.10
2022-11-30T15:35:50.220Z,8.20
2022-11-30T15:38:26.385Z,8.10
2022-11-30T15:41:17.941Z,8.70
2022-11-30T15:44:10.149Z,8.20
2022-11-30T15:50:43.929Z,7.70
2022-11-30T15:53:42.840Z,8.50
2022-11-30T15:59:42.385Z,7.70
2022-11-30T16:02:41.095Z,8.00
2022-11-30T16:05:32.005Z,8.30
2022-11-30T16:08:13.248Z,8.00
2022-11-30T16:10:50.805Z,8.20
2022-11-30T16:13:32.006Z,8.20
2022-11-30T16:16:06.456Z,8.10
2022-11-30T16:18:36.708Z,8.40
2022-11-30T16:21:10.221Z,7.90
2022-11-30T16:24:01.507Z,7.90
2022-11-30T16:32:32.287Z,6.50
2022-11-30T16:35:02.276Z,7.80
2022-11-30T16:41:01.108Z,7.90
2022-11-30T16:44:26.891Z,8.40
2022-11-30T16:46:58.316Z,7.50
2022-11-30T16:49:28.423Z,7.70
2022-11-30T16:52:13.434Z,8.30
2022-11-30T16:54:45.695Z,8.30
2022-11-30T16:57:21.591Z,7.70
2022-11-30T16:59:51.380Z,7.80
2022-11-30T17:02:32.227Z,8.10
2022-11-30T17:05:08.135Z,7.70
2022-11-30T17:07:39.936Z,7.60
2022-11-30T17:13:17.525Z,8.10
2022-11-30T17:15:51.786Z,8.10
2022-11-30T17:18:28.134Z,8.00
2022-11-30T17:21:00.519Z,7.40
2022-11-30T17:23:30.987Z,7.30
2022-11-30T17:26:10.341Z,7.40
2022-11-30T17:29:11.163Z,7.30
2022-11-30T17:31:43.180Z,7.70
2022-11-30T17:34:18.602Z,7.40
2022-11-30T17:36:51.427Z,7.40
2022-11-30T17:39:26.068Z,7.40
2022-11-30T17:42:08.666Z,7.30
2022-11-30T17:44:49.719Z,7.30
2022-11-30T18:08:16.024Z,8.20
2022-11-30T18:15:59.249Z,8.50
2022-11-30T18:18:51.122Z,7.50
2022-11-30T18:21:22.977Z,7.20
2022-11-30T18:23:55.339Z,7.20
2022-11-30T18:26:27.920Z,7.20
2022-11-30T18:29:02.967Z,7.20
2022-11-30T18:31:34.730Z,7.20
2022-11-30T18:34:16.618Z,7.10
2022-11-30T18:43:01.885Z,7.10
2022-11-30T18:48:33.065Z,6.90
2022-11-30T18:51:15.380Z,7.00
2022-11-30T19:00:06.713Z,7.10
2022-11-30T19:02:54.400Z,6.80
2022-11-30T19:05:51.105Z,7.10
2022-11-30T19:08:33.833Z,7.00
2022-11-30T19:14:12.151Z,7.10
2022-11-30T19:19:48.866Z,7.00
2022-11-30T19:25:31.375Z,7.10
2022-11-30T19:28:08.628Z,7.10
2022-11-30T19:30:51.287Z,7.10
2022-11-30T19:33:26.228Z,7.10
2022-11-30T19:36:03.279Z,7.00
2022-11-30T19:42:04.982Z,7.00
2022-11-30T19:45:02.266Z,7.10
2022-11-30T19:50:31.088Z,7.10
2022-11-30T19:57:20.010Z,7.10
2022-11-30T20:02:55.067Z,7.10
2022-11-30T20:05:29.059Z,7.10
2022-11-30T21:04:24.172Z,6.90
2022-11-30T21:07:06.094Z,7.00
2022-11-30T21:09:41.770Z,7.00
2022-11-30T21:12:20.011Z,6.90
2022-11-30T21:15:06.467Z,6.90
2022-11-30T21:27:44.389Z,6.90
2022-11-30T21:30:44.033Z,6.90
2022-11-30T21:35:59.078Z,7.00
2022-11-30T21:38:29.360Z,7.00
2022-11-30T21:41:10.226Z,7.00
2022-11-30T21:43:47.695Z,6.60
2022-11-30T21:48:53.091Z,7.00
2022-11-30T21:51:26.800Z,7.00
2022-11-30T21:54:09.184Z,6.90
2022-11-30T21:57:10.754Z,7.30
2022-11-30T21:59:54.329Z,6.90
2022-11-30T22:02:41.524Z,6.90
2022-11-30T22:10:37.265Z,7.00
2022-11-30T22:13:06.828Z,6.80
2022-11-30T22:15:43.921Z,7.00
2022-11-30T22:18:14.798Z,7.00
2022-11-30T22:20:54.848Z,7.00
2022-11-30T22:23:29.247Z,7.00
2022-11-30T22:26:21.039Z,7.00
2022-11-30T22:29:22.783Z,7.00
2022-11-30T22:32:39.537Z,7.00
2022-11-30T22:35:23.034Z,7.10
2022-11-30T22:37:53.790Z,7.30
2022-11-30T22:43:33.599Z,7.30
2022-11-30T22:46:14.402Z,7.50
2022-11-30T22:49:35.661Z,9.30
2022-11-30T22:59:53.097Z,7.20
2022-11-30T23:15:21.468Z,7.70
2022-11-30T23:30:42.774Z,5.70
2022-11-30T23:33:20.837Z,6.90
2022-11-30T23:48:35.285Z,7.30
